Reynoldsburg, Ohio
Current Conditions -  °F | °C
As of 4:51 AM on Wednesday 26 Nov 2014 (Local Time) from KCMH Reporting Station
Overcast Overcast  
Wind Chill: 22°   Ceiling: 14000
Heat Index: 28°   Visibility: 9mi
Dew Point: 24°   Wind: 6mph
Humidity: 85%   Direction: 360°N
Pressure: 30.11"   Gusts: NA
Location:  39.96°N, 82.8°W
Report Text: KCMH 260951Z 36005KT 9SM OVC140 M02/M04 A3011 RMK AO2 SLP204 T10221044 $
Loading
Personal Weather Stations






























Interactive Weather Map New forecast layout! Learn more

10-Day Weather Forecast

Advertisements
Track Severe Weather on mobile